createdAt,value
2022-12-11T00:00:26.397Z,90.76
2022-12-11T00:02:53.385Z,90.60
2022-12-11T00:05:20.533Z,91.08
2022-12-11T00:07:47.598Z,90.84
2022-12-11T00:10:14.497Z,90.63
2022-12-11T00:12:41.570Z,91.09
2022-12-11T00:15:09.226Z,90.25
2022-12-11T00:17:36.562Z,90.41
2022-12-11T00:20:04.992Z,90.24
2022-12-11T00:22:31.879Z,90.40
2022-12-11T00:24:58.742Z,90.37
2022-12-11T00:27:25.704Z,90.02
2022-12-11T00:29:52.741Z,90.33
2022-12-11T00:32:19.801Z,90.37
2022-12-11T00:34:46.777Z,90.08
2022-12-11T00:37:14.119Z,90.46
2022-12-11T00:39:41.218Z,90.18
2022-12-11T00:42:08.701Z,90.69
2022-12-11T00:44:36.088Z,90.52
2022-12-11T00:47:03.937Z,90.41
2022-12-11T00:49:31.275Z,90.27
2022-12-11T00:51:58.328Z,90.25
2022-12-11T00:54:25.214Z,90.77
2022-12-11T00:56:52.234Z,90.41
2022-12-11T00:59:19.290Z,90.74
2022-12-11T01:01:46.326Z,90.70
2022-12-11T01:04:13.528Z,90.67
2022-12-11T01:06:40.625Z,90.69
2022-12-11T01:09:26.233Z,90.82
2022-12-11T01:11:53.561Z,90.70
2022-12-11T01:14:20.417Z,90.78
2022-12-11T01:16:47.530Z,90.79
2022-12-11T01:19:14.832Z,90.64
2022-12-11T01:21:41.678Z,90.99
2022-12-11T01:24:08.528Z,90.82
2022-12-11T01:26:35.961Z,90.61
2022-12-11T01:29:03.453Z,90.86
2022-12-11T01:31:30.549Z,90.54
2022-12-11T01:33:57.652Z,90.88
2022-12-11T01:36:24.709Z,91.01
2022-12-11T01:38:53.581Z,90.89
2022-12-11T01:41:21.766Z,90.67
2022-12-11T01:44:08.749Z,91.21
2022-12-11T01:46:36.582Z,91.08
2022-12-11T01:49:08.973Z,91.41
2022-12-11T01:51:49.422Z,91.39
2022-12-11T01:54:20.275Z,91.93
2022-12-11T01:56:49.937Z,91.68
2022-12-11T01:59:23.484Z,91.86
2022-12-11T02:01:59.140Z,91.85
2022-12-11T02:04:29.339Z,91.96
2022-12-11T02:06:56.289Z,92.00
2022-12-11T02:09:33.288Z,91.75
2022-12-11T02:12:18.218Z,91.81
2022-12-11T02:14:57.337Z,91.90
2022-12-11T02:17:33.667Z,91.71
2022-12-11T02:20:22.843Z,92.23
2022-12-11T02:22:52.477Z,92.03
2022-12-11T02:25:35.855Z,91.87
2022-12-11T02:28:14.892Z,92.13
2022-12-11T02:30:47.313Z,91.96
2022-12-11T02:33:18.347Z,91.90
2022-12-11T02:35:48.340Z,91.92
2022-12-11T02:38:27.073Z,91.84
2022-12-11T02:40:58.035Z,91.83
2022-12-11T02:43:25.563Z,91.82
2022-12-11T02:45:54.322Z,91.48
2022-12-11T02:48:24.338Z,91.76
2022-12-11T02:50:56.077Z,91.59
2022-12-11T02:53:28.670Z,91.55
2022-12-11T02:56:10.864Z,91.71
2022-12-11T02:58:47.618Z,91.50
2022-12-11T03:01:14.670Z,91.58
2022-12-11T03:03:42.317Z,91.43
2022-12-11T03:06:18.267Z,91.44
2022-12-11T03:08:45.135Z,91.62
2022-12-11T03:11:13.353Z,91.38
2022-12-11T03:13:42.518Z,91.44
2022-12-11T03:16:41.709Z,91.22
2022-12-11T03:19:35.438Z,91.11
2022-12-11T03:22:36.908Z,91.30
2022-12-11T03:25:10.465Z,91.54
2022-12-11T03:27:50.549Z,91.05
2022-12-11T03:30:22.110Z,91.20
2022-12-11T03:32:58.199Z,91.12
2022-12-11T03:35:28.272Z,90.92
2022-12-11T03:38:01.979Z,90.97
2022-12-11T03:40:35.506Z,91.16
2022-12-11T03:43:05.144Z,90.81
2022-12-11T03:45:34.926Z,91.10
2022-12-11T03:48:03.261Z,90.80
2022-12-11T03:50:34.260Z,90.72
2022-12-11T03:53:04.707Z,90.88
2022-12-11T03:55:34.317Z,91.06
2022-12-11T03:58:01.358Z,90.70
2022-12-11T04:00:29.546Z,90.74
2022-12-11T04:03:15.912Z,90.83
2022-12-11T04:05:46.469Z,90.82
2022-12-11T04:08:14.389Z,90.25
2022-12-11T04:10:42.069Z,90.40
2022-12-11T04:13:10.669Z,90.54
2022-12-11T04:15:39.488Z,90.74
2022-12-11T04:18:26.650Z,91.03
2022-12-11T04:21:13.572Z,90.76
2022-12-11T04:23:59.351Z,90.63
2022-12-11T04:26:26.889Z,90.83
2022-12-11T04:28:54.397Z,90.78
2022-12-11T04:31:22.522Z,90.51
2022-12-11T04:33:49.515Z,90.59
2022-12-11T04:36:16.922Z,90.48
2022-12-11T04:38:43.756Z,90.62
2022-12-11T04:41:14.719Z,90.69
2022-12-11T04:43:44.908Z,90.41
2022-12-11T04:46:20.522Z,90.68
2022-12-11T04:48:53.838Z,91.05
2022-12-11T04:51:24.063Z,91.13
2022-12-11T04:53:50.900Z,90.79
2022-12-11T04:56:17.796Z,90.76
2022-12-11T04:58:46.483Z,90.93
2022-12-11T05:01:16.456Z,91.00
2022-12-11T05:03:43.727Z,91.01
2022-12-11T05:06:12.081Z,90.94
2022-12-11T05:08:41.625Z,91.05
2022-12-11T05:11:12.041Z,90.74
2022-12-11T05:13:40.114Z,90.99
2022-12-11T05:16:09.591Z,90.84
2022-12-11T05:18:36.796Z,90.42
2022-12-11T05:21:07.194Z,90.78
2022-12-11T05:23:34.583Z,90.25
2022-12-11T05:26:05.389Z,90.63
2022-12-11T05:28:35.596Z,90.32
2022-12-11T05:31:09.263Z,89.88
2022-12-11T05:33:36.291Z,90.42
2022-12-11T05:36:03.977Z,90.79
2022-12-11T05:38:30.964Z,90.32
2022-12-11T05:41:06.552Z,90.37
2022-12-11T05:43:35.931Z,90.66
2022-12-11T05:46:08.185Z,90.01
2022-12-11T05:48:35.312Z,90.38
2022-12-11T05:51:02.931Z,90.37
2022-12-11T05:53:30.127Z,90.09
2022-12-11T05:56:06.104Z,90.39
2022-12-11T05:58:34.423Z,90.25
2022-12-11T06:01:02.860Z,90.37
2022-12-11T06:03:29.860Z,90.38
2022-12-11T06:05:56.844Z,90.25
2022-12-11T06:08:23.727Z,90.35
2022-12-11T06:10:50.876Z,90.08
2022-12-11T06:13:18.280Z,90.06
2022-12-11T06:15:45.316Z,90.20
2022-12-11T06:18:12.166Z,90.00
2022-12-11T06:20:39.020Z,89.82
2022-12-11T06:23:06.043Z,90.12
2022-12-11T06:25:33.473Z,90.01
2022-12-11T06:28:01.002Z,89.82
2022-12-11T06:30:38.652Z,89.84
2022-12-11T06:33:06.495Z,89.96
2022-12-11T06:35:40.057Z,90.22
2022-12-11T06:38:10.406Z,90.09
2022-12-11T06:40:38.089Z,89.77
2022-12-11T06:43:04.950Z,89.51
2022-12-11T06:45:31.974Z,89.76
2022-12-11T06:47:58.819Z,89.90
2022-12-11T06:50:26.299Z,89.81
2022-12-11T06:52:53.170Z,89.86
2022-12-11T06:55:19.999Z,90.07
2022-12-11T06:57:47.016Z,90.10
2022-12-11T07:00:14.465Z,89.88
2022-12-11T07:02:41.527Z,89.42
2022-12-11T07:05:08.796Z,89.33
2022-12-11T07:07:35.950Z,89.48
2022-12-11T07:10:08.037Z,89.62
2022-12-11T07:12:36.702Z,89.78
2022-12-11T07:15:05.108Z,89.58
2022-12-11T07:17:32.265Z,89.79
2022-12-11T07:19:59.105Z,90.10
2022-12-11T07:22:26.293Z,89.69
2022-12-11T07:24:53.103Z,89.55
2022-12-11T07:27:19.928Z,89.71
2022-12-11T07:29:46.965Z,89.36
2022-12-11T07:32:14.463Z,89.25
2022-12-11T07:34:41.376Z,89.51
2022-12-11T07:37:08.459Z,89.28
2022-12-11T07:39:35.278Z,89.58
2022-12-11T07:42:02.143Z,89.07
2022-12-11T07:44:29.324Z,88.41
2022-12-11T07:46:56.472Z,88.32
2022-12-11T07:49:23.493Z,88.16
2022-12-11T07:51:50.515Z,88.01
2022-12-11T07:54:17.617Z,88.29
2022-12-11T07:56:51.188Z,86.70
2022-12-11T07:59:20.955Z,86.93
2022-12-11T08:01:48.163Z,86.18
2022-12-11T08:04:15.739Z,86.08
2022-12-11T08:06:43.156Z,86.75
2022-12-11T08:09:20.734Z,85.91
2022-12-11T08:11:52.070Z,86.29
2022-12-11T08:14:19.698Z,86.02
2022-12-11T08:16:46.950Z,86.19
2022-12-11T08:19:14.988Z,85.89
2022-12-11T08:21:41.964Z,85.50
2022-12-11T08:24:20.109Z,85.79
2022-12-11T08:26:48.315Z,85.17
2022-12-11T08:29:15.317Z,85.38
2022-12-11T08:31:42.648Z,84.86
2022-12-11T08:34:13.668Z,85.38
2022-12-11T08:36:41.183Z,85.03
2022-12-11T08:39:08.532Z,84.54
2022-12-11T08:41:36.029Z,85.02
2022-12-11T08:44:02.942Z,85.26
2022-12-11T08:46:32.247Z,85.17
2022-12-11T08:48:59.439Z,84.76
2022-12-11T08:51:28.808Z,84.87
2022-12-11T08:53:58.677Z,85.04
2022-12-11T08:56:27.281Z,84.96
2022-12-11T08:58:54.526Z,84.59
2022-12-11T09:01:24.620Z,84.31
2022-12-11T09:03:55.167Z,83.85
2022-12-11T09:06:25.314Z,84.39
2022-12-11T09:08:54.232Z,83.57
2022-12-11T09:11:24.536Z,82.93
2022-12-11T09:13:52.424Z,83.81
2022-12-11T09:16:22.444Z,83.66
2022-12-11T09:18:51.585Z,82.94
2022-12-11T09:21:22.362Z,82.70
2022-12-11T09:23:53.410Z,82.89
2022-12-11T09:26:20.372Z,82.34
2022-12-11T09:28:48.323Z,82.39
2022-12-11T09:31:23.456Z,82.69
2022-12-11T09:33:52.036Z,82.25
2022-12-11T09:36:19.063Z,82.45
2022-12-11T09:38:46.346Z,82.58
2022-12-11T09:41:22.428Z,81.72
2022-12-11T09:44:12.284Z,81.86
2022-12-11T09:46:41.222Z,82.04
2022-12-11T09:49:28.608Z,82.32
2022-12-11T09:52:05.794Z,81.74
2022-12-11T09:54:34.252Z,81.33
2022-12-11T09:57:37.443Z,81.85
2022-12-11T10:00:24.366Z,81.75
2022-12-11T10:03:02.496Z,81.17
2022-12-11T10:05:48.373Z,80.98
2022-12-11T10:08:34.327Z,81.46
2022-12-11T10:11:10.405Z,81.22
2022-12-11T10:14:15.061Z,81.36
2022-12-11T10:16:45.179Z,80.77
2022-12-11T10:19:22.793Z,80.86
2022-12-11T10:21:52.536Z,80.87
2022-12-11T10:24:50.127Z,80.17
2022-12-11T10:27:16.553Z,80.45
2022-12-11T10:29:43.623Z,80.41
2022-12-11T10:32:24.560Z,80.88
2022-12-11T10:35:02.723Z,80.95
2022-12-11T10:37:29.797Z,80.98
2022-12-11T10:39:56.696Z,80.87
2022-12-11T10:42:24.077Z,80.96
2022-12-11T10:44:58.848Z,80.83
2022-12-11T10:47:26.124Z,80.98
2022-12-11T10:49:59.068Z,81.20
2022-12-11T10:52:31.743Z,81.55
2022-12-11T10:55:03.269Z,81.18
2022-12-11T10:57:36.994Z,81.31
2022-12-11T11:00:08.972Z,80.81
2022-12-11T11:02:41.648Z,80.99
2022-12-11T11:05:26.803Z,80.14
2022-12-11T11:08:23.562Z,79.92
2022-12-11T11:11:01.459Z,79.87
2022-12-11T11:13:32.642Z,80.13
2022-12-11T11:16:04.547Z,80.00
2022-12-11T11:18:32.248Z,79.69
2022-12-11T11:21:00.765Z,79.97
2022-12-11T11:23:29.584Z,79.95
2022-12-11T11:26:09.386Z,79.60
2022-12-11T11:28:40.334Z,79.21
2022-12-11T11:31:13.701Z,79.46
2022-12-11T11:33:58.074Z,79.82
2022-12-11T11:36:28.273Z,79.31
2022-12-11T11:39:19.797Z,78.99
2022-12-11T11:41:57.292Z,79.11
2022-12-11T11:44:36.905Z,79.04
2022-12-11T11:47:12.627Z,78.31
2022-12-11T11:50:15.749Z,78.00
2022-12-11T11:53:02.312Z,78.49
2022-12-11T11:56:01.878Z,77.13
2022-12-11T11:58:59.937Z,77.71
2022-12-11T12:01:27.554Z,78.21
2022-12-11T12:03:56.303Z,78.13
2022-12-11T12:06:59.794Z,77.78
2022-12-11T12:09:51.576Z,78.04
2022-12-11T12:12:57.540Z,78.09
2022-12-11T12:15:36.378Z,78.15
2022-12-11T12:18:21.554Z,77.37
2022-12-11T12:21:00.035Z,77.92
2022-12-11T12:23:49.587Z,77.32
2022-12-11T12:26:39.641Z,77.29
2022-12-11T12:29:58.177Z,77.34
2022-12-11T12:32:25.627Z,77.45
2022-12-11T12:35:14.082Z,76.78
2022-12-11T12:38:03.440Z,76.74
2022-12-11T12:40:41.112Z,76.39
2022-12-11T12:43:34.157Z,76.08
2022-12-11T12:46:19.721Z,75.83
2022-12-11T12:48:46.640Z,76.25
2022-12-11T12:51:16.056Z,76.04
2022-12-11T12:53:53.179Z,76.15
2022-12-11T12:56:22.559Z,76.18
2022-12-11T12:58:49.633Z,76.32
2022-12-11T13:01:24.035Z,76.71
2022-12-11T13:03:55.716Z,76.13
2022-12-11T13:06:40.534Z,75.73
2022-12-11T13:09:13.699Z,75.36
2022-12-11T13:11:40.975Z,76.26
2022-12-11T13:14:13.498Z,76.85
2022-12-11T13:16:43.703Z,75.87
2022-12-11T13:19:22.527Z,76.31
2022-12-11T13:22:17.530Z,77.20
2022-12-11T13:24:50.217Z,77.17
2022-12-11T13:27:26.161Z,77.00
2022-12-11T13:30:25.400Z,77.50
2022-12-11T13:33:06.413Z,77.69
2022-12-11T13:35:35.309Z,77.39
2022-12-11T13:38:19.067Z,77.02
2022-12-11T13:40:53.452Z,77.32
2022-12-11T13:43:30.976Z,77.00
2022-12-11T13:46:03.137Z,77.23
2022-12-11T13:48:41.113Z,77.17
2022-12-11T13:51:08.134Z,77.54
2022-12-11T13:53:35.006Z,77.37
2022-12-11T13:56:07.597Z,77.48
2022-12-11T13:58:38.486Z,77.83
2022-12-11T14:01:15.611Z,77.82
2022-12-11T14:03:58.372Z,77.80
2022-12-11T14:06:28.396Z,77.73
2022-12-11T14:09:00.253Z,77.98
2022-12-11T14:11:34.950Z,77.93
2022-12-11T14:14:06.383Z,77.91
2022-12-11T14:16:34.293Z,78.53
2022-12-11T14:19:08.346Z,78.29
2022-12-11T14:21:36.423Z,78.23
2022-12-11T14:24:06.444Z,78.27
2022-12-11T14:26:38.599Z,78.23
2022-12-11T14:29:06.903Z,78.31
2022-12-11T14:31:42.811Z,78.51
2022-12-11T14:34:20.483Z,78.38
2022-12-11T14:36:49.370Z,78.83
2022-12-11T14:39:25.591Z,78.85
2022-12-11T14:42:20.154Z,79.20
2022-12-11T14:45:16.685Z,78.93
2022-12-11T14:47:44.769Z,79.05
2022-12-11T14:50:27.406Z,79.44
2022-12-11T14:53:01.932Z,79.27
2022-12-11T14:55:34.820Z,79.72
2022-12-11T14:58:07.530Z,79.61
2022-12-11T15:00:36.973Z,79.47
2022-12-11T15:03:20.197Z,80.00
2022-12-11T15:05:54.890Z,79.67
2022-12-11T15:08:31.813Z,79.96
2022-12-11T15:11:13.149Z,79.92
2022-12-11T15:14:04.673Z,79.86
2022-12-11T15:16:37.442Z,79.79
2022-12-11T15:19:05.249Z,79.62
2022-12-11T15:21:35.836Z,79.85
2022-12-11T15:24:05.962Z,80.07
2022-12-11T15:26:45.549Z,80.56
2022-12-11T15:29:30.406Z,80.28
2022-12-11T15:32:09.653Z,80.36
2022-12-11T15:34:47.903Z,80.51
2022-12-11T15:37:19.708Z,80.41
2022-12-11T15:39:46.603Z,80.46
2022-12-11T15:42:20.871Z,80.69
2022-12-11T15:44:47.995Z,80.62
2022-12-11T15:47:19.637Z,80.65
2022-12-11T15:49:46.891Z,80.46
2022-12-11T15:52:13.918Z,80.54
2022-12-11T15:54:41.038Z,80.20
2022-12-11T15:57:16.487Z,80.04
2022-12-11T15:59:47.454Z,80.40
2022-12-11T16:02:15.250Z,80.85
2022-12-11T16:04:42.276Z,80.54
2022-12-11T16:07:18.874Z,80.70
2022-12-11T16:09:47.003Z,80.61
2022-12-11T16:12:14.285Z,80.43
2022-12-11T16:14:42.155Z,80.71
2022-12-11T16:17:10.911Z,80.99
2022-12-11T16:19:38.982Z,80.55
2022-12-11T16:22:08.517Z,80.61
2022-12-11T16:24:35.953Z,80.77
2022-12-11T16:27:03.810Z,80.81
2022-12-11T16:29:41.287Z,80.97
2022-12-11T16:32:08.659Z,80.96
2022-12-11T16:34:37.488Z,80.33
2022-12-11T16:37:08.355Z,80.54
2022-12-11T16:39:37.486Z,80.88
2022-12-11T16:42:05.966Z,80.94
2022-12-11T16:44:33.358Z,81.17
2022-12-11T16:47:00.514Z,81.03
2022-12-11T16:49:27.617Z,80.94
2022-12-11T16:51:54.678Z,80.91
2022-12-11T16:54:21.771Z,80.73
2022-12-11T16:56:48.682Z,81.03
2022-12-11T16:59:15.610Z,80.81
2022-12-11T17:01:42.697Z,80.85
2022-12-11T17:04:10.206Z,81.25
2022-12-11T17:06:37.119Z,81.02
2022-12-11T17:09:04.004Z,80.84
2022-12-11T17:11:31.108Z,81.14
2022-12-11T17:13:59.736Z,80.59
2022-12-11T17:16:33.839Z,80.91
2022-12-11T17:19:02.899Z,81.12
2022-12-11T17:21:30.157Z,81.42
2022-12-11T17:23:57.232Z,81.18
2022-12-11T17:26:25.370Z,81.53
2022-12-11T17:28:52.453Z,81.32
2022-12-11T17:31:19.955Z,81.18
2022-12-11T17:33:48.036Z,81.48
2022-12-11T17:36:17.317Z,81.33
2022-12-11T17:38:45.284Z,81.31
2022-12-11T17:41:20.353Z,81.22
2022-12-11T17:43:52.867Z,81.18
2022-12-11T17:46:21.205Z,81.18
2022-12-11T17:48:48.870Z,81.60
2022-12-11T17:51:23.648Z,81.38
2022-12-11T17:53:51.602Z,81.70
2022-12-11T17:56:18.641Z,81.39
2022-12-11T17:58:45.768Z,81.56
2022-12-11T18:01:13.236Z,81.35
2022-12-11T18:03:41.317Z,81.29
2022-12-11T18:06:14.684Z,81.51
2022-12-11T18:08:42.774Z,81.79
2022-12-11T18:11:16.703Z,81.33
2022-12-11T18:13:45.448Z,81.39
2022-12-11T18:16:17.472Z,82.21
2022-12-11T18:18:46.281Z,81.65
2022-12-11T18:21:25.556Z,81.92
2022-12-11T18:23:53.117Z,82.04
2022-12-11T18:26:20.860Z,81.61
2022-12-11T18:28:49.350Z,81.86
2022-12-11T18:31:17.855Z,81.82
2022-12-11T18:33:46.118Z,81.55
2022-12-11T18:36:15.625Z,81.66
2022-12-11T18:38:43.132Z,81.22
2022-12-11T18:41:13.072Z,80.90
2022-12-11T18:43:40.689Z,80.95
2022-12-11T18:46:10.138Z,81.28
2022-12-11T18:48:37.333Z,80.77
2022-12-11T18:51:11.008Z,80.22
2022-12-11T18:53:41.452Z,80.26
2022-12-11T18:56:11.846Z,79.96
2022-12-11T18:58:39.438Z,80.17
2022-12-11T19:01:13.951Z,80.23
2022-12-11T19:03:41.254Z,79.57
2022-12-11T19:06:18.124Z,79.36
2022-12-11T19:08:45.437Z,79.39
2022-12-11T19:11:18.491Z,79.65
2022-12-11T19:13:45.995Z,79.18
2022-12-11T19:16:18.449Z,79.21
2022-12-11T19:18:46.258Z,78.62
2022-12-11T19:21:15.375Z,78.89
2022-12-11T19:23:43.661Z,78.81
2022-12-11T19:26:13.544Z,78.71
2022-12-11T19:28:40.688Z,79.17
2022-12-11T19:31:13.774Z,79.09
2022-12-11T19:33:42.129Z,79.32
2022-12-11T19:36:12.241Z,79.41
2022-12-11T19:38:41.521Z,78.71
2022-12-11T19:41:21.674Z,78.97
2022-12-11T19:43:50.785Z,78.76
2022-12-11T19:46:19.149Z,79.40
2022-12-11T19:48:49.359Z,79.62
2022-12-11T19:51:22.992Z,79.26
2022-12-11T19:53:50.765Z,78.80
2022-12-11T19:56:19.851Z,78.26
2022-12-11T19:58:48.098Z,78.30
2022-12-11T20:01:28.842Z,78.91
2022-12-11T20:03:59.979Z,79.22
2022-12-11T20:06:28.584Z,79.43
2022-12-11T20:08:55.837Z,79.69
2022-12-11T20:11:23.054Z,80.00
2022-12-11T20:13:51.233Z,79.54
2022-12-11T20:16:28.888Z,80.03
2022-12-11T20:19:06.751Z,79.87
2022-12-11T20:21:34.477Z,79.63
2022-12-11T20:24:01.604Z,79.33
2022-12-11T20:26:30.908Z,79.50
2022-12-11T20:28:58.062Z,79.00
2022-12-11T20:31:26.264Z,79.10
2022-12-11T20:33:56.205Z,78.68
2022-12-11T20:36:25.270Z,78.88
2022-12-11T20:38:52.915Z,78.88
2022-12-11T20:41:22.820Z,79.42
2022-12-11T20:43:50.840Z,78.63
2022-12-11T20:46:18.314Z,78.93
2022-12-11T20:48:46.541Z,78.82
2022-12-11T20:51:19.690Z,78.38
2022-12-11T20:53:57.372Z,78.20
2022-12-11T20:56:27.799Z,78.62
2022-12-11T20:58:55.891Z,78.13
2022-12-11T21:01:25.548Z,78.96
2022-12-11T21:03:53.448Z,78.87
2022-12-11T21:06:46.817Z,78.66
2022-12-11T21:09:19.167Z,78.97
2022-12-11T21:11:46.163Z,79.14
2022-12-11T21:14:13.410Z,78.99
2022-12-11T21:16:40.494Z,79.33
2022-12-11T21:19:12.447Z,79.74
2022-12-11T21:21:45.194Z,79.22
2022-12-11T21:24:15.546Z,79.86
2022-12-11T21:26:42.958Z,78.94
2022-12-11T21:29:10.015Z,79.33
2022-12-11T21:31:36.792Z,80.12
2022-12-11T21:34:03.922Z,80.40
2022-12-11T21:36:31.189Z,80.75
2022-12-11T21:38:59.176Z,81.26
2022-12-11T21:41:26.811Z,81.71
2022-12-11T21:45:07.198Z,82.05
2022-12-11T21:46:43.500Z,82.32
2022-12-11T21:49:10.611Z,81.70
2022-12-11T21:51:44.048Z,81.02
2022-12-11T21:54:18.103Z,80.65
2022-12-11T21:56:45.964Z,80.64
2022-12-11T21:59:13.524Z,80.91
2022-12-11T22:01:43.758Z,80.84
2022-12-11T22:04:11.497Z,80.51
2022-12-11T22:06:41.852Z,80.78
2022-12-11T22:09:10.616Z,80.17
2022-12-11T22:11:37.853Z,80.35
2022-12-11T22:14:06.665Z,80.38
2022-12-11T22:16:34.761Z,80.29
2022-12-11T22:19:01.811Z,80.23
2022-12-11T22:21:29.031Z,80.99
2022-12-11T22:23:56.319Z,81.55
2022-12-11T22:26:26.344Z,81.57
2022-12-11T22:28:54.391Z,81.70
2022-12-11T22:31:26.227Z,82.20
2022-12-11T22:33:54.786Z,81.15
2022-12-11T22:36:23.670Z,81.04
2022-12-11T22:38:51.333Z,81.20
2022-12-11T22:41:28.695Z,81.06
2022-12-11T22:43:56.630Z,81.05
2022-12-11T22:46:26.950Z,80.78
2022-12-11T22:48:54.911Z,81.28
2022-12-11T22:51:22.864Z,81.26
2022-12-11T22:53:50.202Z,81.22
2022-12-11T22:56:17.197Z,81.15
2022-12-11T22:58:44.256Z,81.92
2022-12-11T23:01:14.432Z,81.85
2022-12-11T23:03:41.502Z,81.49
2022-12-11T23:06:11.379Z,81.14
2022-12-11T23:08:39.985Z,81.39
2022-12-11T23:11:21.160Z,81.71
2022-12-11T23:13:48.281Z,81.16
2022-12-11T23:16:15.390Z,81.00
2022-12-11T23:18:43.177Z,80.26
2022-12-11T23:21:11.671Z,80.51
2022-12-11T23:23:39.305Z,80.37
2022-12-11T23:26:09.142Z,80.11
2022-12-11T23:28:36.205Z,80.27
2022-12-11T23:31:03.639Z,80.45
2022-12-11T23:33:30.697Z,80.11
2022-12-11T23:35:58.622Z,80.06
2022-12-11T23:38:26.232Z,80.25
2022-12-11T23:40:53.565Z,80.03
2022-12-11T23:43:21.864Z,79.32
2022-12-11T23:45:49.183Z,79.08
2022-12-11T23:48:16.508Z,79.58
2022-12-11T23:50:44.855Z,79.25
2022-12-11T23:53:12.225Z,78.87
2022-12-11T23:55:44.370Z,79.31
2022-12-11T23:58:11.763Z,79.25
